Vilnius, Lithuania

7:25 PM EEST on July 24, 2014 (GMT +0300)
Vilnius International (EYVI) Elev 643 ft | 54.63 °N, 25.29 °E | Change Station

Current weather conditions updated 5 minutes ago

Clear
Clear
79 °F
Feels Like 79 °F
N
7
Wind Variable Wind from ENE

Tomorrow is forecast to be nearly the same temperature as today.

Today
High -- | Low -- °F
--% Chance of Precip.
Yesterday
High -- | Low -- °F
Precip. -- in
5:15 AM 9:34 PM
Waning Crescent, 5% visible
Pressure 30.06 in
Visibility -9999.0 miles
Clouds
Dew Point 52 °F
Humidity 39%
Rainfall 0.00 in
Snow Depth Not available.
UV Not available.
Pollen Not available.
Air Quality Not available.
Flu Activity Not available.
METAR EYVI 241620Z 06006KT CAVOK 26/11 Q1018 NOSIG

More Conditions Fewer Conditions

Pressure 30.06 in
Visibility -9999.0 miles
Clouds
Dew Point 52 °F
Humidity 39%
Rainfall 0.00 in
Snow Depth Not available.
UV Not available.
Pollen Not available.
Air Quality Not available.
Flu Activity Not available.
METAR EYVI 241620Z 06006KT CAVOK 26/11 Q1018 NOSIG

More Conditions Fewer Conditions

10-Day Weather Forecast

Almanac

Astronomy

Jul. 24, 2014 Rise Set
Actual Time 5:15 AM EEST 9:34 PM EEST
Civil Twilight 4:26 AM EEST 10:22 PM EEST
Nautical Twilight 3:12 AM EEST 11:35 PM EEST
Astronomical Twilight 1:57 AM EEST 12:52 AM EEST
Moon 3:11 AM EEST 7:29 PM EEST
Length of Visible Light 17h 55m
Length of Day
16h 18m
Tomorrow will be 3m 14s shorter.
Waning Crescent, 5% of the Moon is Illuminated
Today
Waning Crescent
Jul 26
New
Aug 3
First Quarter
Aug 10
Full
Aug 17
Last Quarter

Today's Extremes

Country Highs Country Lows

Community

WunderPhotos

Upload Photos

1,737,056 photos uploaded!

Nearby

Snow Depth

Not available.

Earthquake Activity

City Distance Mag. Time & Date
No recent earthquake activity has been reported nearby.
Minimum magnitude displayed is 2.5.

Coastal Water Temperatures

Place Temperature
No Stations Reporting

Nearby Weather Stations

Station Location Temp. Heat Index Dew Point Humidity Wind Precip. Elev Updated Type
Virsuliskes, Vilnius 83.8 °F 83 °F 58 °F 41% East  at  6.9 mph 0.00 in / hr 584 ft 7:20 PM EEST Normal

Show More Stations Show Fewer Stations